createdAt,value
2023-03-06T00:03:41.717Z,9.70
2023-03-06T00:08:45.335Z,9.70
2023-03-06T00:13:48.986Z,8.60
2023-03-06T00:18:52.797Z,7.30
2023-03-06T00:23:56.458Z,9.30
2023-03-06T00:29:00.117Z,6.30
2023-03-06T00:34:04.378Z,8.90
2023-03-06T00:39:09.330Z,10.00
2023-03-06T00:44:13.014Z,7.60
2023-03-06T00:49:16.810Z,7.20
2023-03-06T00:54:20.677Z,6.60
2023-03-06T00:59:24.352Z,7.90
2023-03-06T01:04:27.873Z,7.10
2023-03-06T01:09:32.082Z,6.60
2023-03-06T01:14:36.510Z,5.60
2023-03-06T01:19:40.076Z,6.30
2023-03-06T01:24:43.719Z,6.10
2023-03-06T01:29:47.314Z,5.30
2023-03-06T01:34:51.034Z,6.50
2023-03-06T01:39:54.721Z,7.50
2023-03-06T01:45:18.189Z,7.20
2023-03-06T01:50:22.458Z,4.10
2023-03-06T01:55:33.449Z,5.70
2023-03-06T02:00:37.040Z,16.70
2023-03-06T02:05:44.047Z,15.50
2023-03-06T02:11:20.843Z,8.40
2023-03-06T02:16:30.670Z,5.10
2023-03-06T02:21:37.888Z,5.50
2023-03-06T02:26:43.490Z,8.20
2023-03-06T02:31:47.194Z,7.40
2023-03-06T02:37:09.185Z,7.10
2023-03-06T02:42:20.172Z,6.20
2023-03-06T02:47:23.956Z,6.30
2023-03-06T02:52:27.537Z,5.80
2023-03-06T02:57:31.206Z,5.20
2023-03-06T03:02:34.803Z,3.90
2023-03-06T03:07:38.486Z,4.50
2023-03-06T03:12:42.795Z,6.20
2023-03-06T03:17:46.406Z,7.40
2023-03-06T03:22:53.628Z,5.60
2023-03-06T03:27:57.248Z,4.80
2023-03-06T03:33:00.875Z,5.90
2023-03-06T03:38:04.830Z,5.80
2023-03-06T03:43:08.371Z,5.70
2023-03-06T03:48:11.914Z,4.90
2023-03-06T03:53:15.529Z,3.80
2023-03-06T03:58:19.001Z,3.50
2023-03-06T04:03:22.545Z,4.40
2023-03-06T04:08:27.722Z,4.50
2023-03-06T04:13:31.289Z,3.20
2023-03-06T04:18:35.036Z,5.00
2023-03-06T04:23:38.735Z,4.80
2023-03-06T04:28:42.365Z,5.40
2023-03-06T04:33:46.009Z,3.70
2023-03-06T04:38:49.522Z,5.30
2023-03-06T04:43:53.754Z,5.00
2023-03-06T04:48:57.306Z,5.30
2023-03-06T04:54:01.233Z,7.80
2023-03-06T04:59:04.989Z,6.80
2023-03-06T05:04:08.701Z,5.20
2023-03-06T05:09:12.176Z,7.60
2023-03-06T05:14:15.876Z,6.10
2023-03-06T05:19:19.404Z,11.10
2023-03-06T05:24:23.246Z,6.50
2023-03-06T05:29:27.841Z,7.60
2023-03-06T05:34:31.717Z,6.30
2023-03-06T05:39:35.305Z,5.40
2023-03-06T05:44:38.965Z,4.80
2023-03-06T05:49:42.729Z,6.70
2023-03-06T05:54:52.153Z,5.60
2023-03-06T05:59:55.711Z,4.70
2023-03-06T06:05:05.557Z,6.40
2023-03-06T06:10:11.369Z,6.20
2023-03-06T06:15:15.792Z,5.70
2023-03-06T06:20:19.660Z,8.10
2023-03-06T06:25:23.195Z,5.90
2023-03-06T06:30:26.915Z,7.50
2023-03-06T06:35:30.420Z,6.80
2023-03-06T06:40:34.133Z,5.40
2023-03-06T06:45:37.887Z,6.10
2023-03-06T06:50:41.721Z,4.90
2023-03-06T06:55:45.402Z,8.30
2023-03-06T07:00:49.081Z,6.90
2023-03-06T07:05:56.457Z,5.50
2023-03-06T07:11:07.546Z,6.70
2023-03-06T07:16:11.581Z,7.20
2023-03-06T07:21:15.667Z,6.40
2023-03-06T07:26:19.511Z,4.80
2023-03-06T07:31:27.381Z,6.60
2023-03-06T07:36:31.220Z,5.10
2023-03-06T07:41:35.762Z,6.70
2023-03-06T07:46:39.557Z,7.40
2023-03-06T07:51:43.521Z,8.40
2023-03-06T07:56:51.911Z,9.70
2023-03-06T08:01:57.869Z,9.20
2023-03-06T08:07:01.744Z,7.60
2023-03-06T08:12:06.498Z,8.50
2023-03-06T08:17:10.541Z,7.30
2023-03-06T08:22:14.645Z,9.60
2023-03-06T08:27:18.602Z,21.90
2023-03-06T08:32:22.779Z,5.40
2023-03-06T08:37:26.752Z,4.90
2023-03-06T08:42:31.911Z,6.00
2023-03-06T08:47:36.742Z,4.80
2023-03-06T08:52:40.571Z,6.30
2023-03-06T08:57:44.606Z,6.50
2023-03-06T09:02:48.667Z,4.50
2023-03-06T09:07:52.759Z,4.50
2023-03-06T09:12:56.592Z,5.40
2023-03-06T09:18:00.610Z,4.30
2023-03-06T09:23:04.652Z,7.20
2023-03-06T09:28:11.581Z,4.90
2023-03-06T09:33:17.139Z,6.30
2023-03-06T09:38:25.513Z,2.70
2023-03-06T09:43:42.174Z,3.60
2023-03-06T09:49:10.574Z,3.70
2023-03-06T09:58:30.430Z,5.60
2023-03-06T10:08:48.716Z,5.70
2023-03-06T10:14:19.870Z,6.30
2023-03-06T10:19:32.096Z,6.30
2023-03-06T10:24:54.763Z,4.80
2023-03-06T10:30:23.478Z,3.50
2023-03-06T10:35:41.999Z,3.00
2023-03-06T10:41:26.181Z,4.60
2023-03-06T10:46:40.127Z,2.80
2023-03-06T10:52:05.747Z,4.20
2023-03-06T10:57:25.326Z,2.90
2023-03-06T11:02:41.372Z,3.80
2023-03-06T11:08:00.728Z,7.90
2023-03-06T11:13:26.528Z,5.40
2023-03-06T11:18:35.230Z,3.60
2023-03-06T11:23:46.836Z,4.70
2023-03-06T11:29:09.154Z,3.10
2023-03-06T11:34:31.941Z,5.10
2023-03-06T11:39:48.271Z,2.40
2023-03-06T11:45:03.176Z,5.50
2023-03-06T11:50:41.717Z,6.90
2023-03-06T11:56:20.181Z,11.10
2023-03-06T12:02:05.238Z,5.20
2023-03-06T12:07:53.067Z,5.30
2023-03-06T12:13:08.052Z,4.70
2023-03-06T12:18:43.931Z,8.60
2023-03-06T12:24:30.155Z,6.80
2023-03-06T12:30:18.618Z,12.90
2023-03-06T12:35:58.248Z,7.40
2023-03-06T12:41:36.118Z,3.50
2023-03-06T12:46:52.632Z,2.90
2023-03-06T12:51:59.952Z,3.80
2023-03-06T12:57:09.199Z,6.20
2023-03-06T13:02:41.982Z,7.00
2023-03-06T13:08:19.632Z,13.90
2023-03-06T13:13:44.894Z,8.80
2023-03-06T13:19:12.378Z,3.70
2023-03-06T13:24:40.462Z,5.70
2023-03-06T13:29:53.144Z,9.00
2023-03-06T13:34:57.211Z,6.60
2023-03-06T13:40:00.921Z,14.50
2023-03-06T13:45:38.745Z,13.20
2023-03-06T13:50:47.089Z,21.80
2023-03-06T13:56:27.772Z,10.10
2023-03-06T14:01:59.503Z,10.30
2023-03-06T14:07:27.147Z,9.30
2023-03-06T14:12:40.764Z,55.30
2023-03-06T14:18:01.955Z,19.30
2023-03-06T14:24:02.262Z,48.50
2023-03-06T14:29:18.640Z,33.40
2023-03-06T14:34:30.882Z,38.70
2023-03-06T14:39:46.995Z,85.30
2023-03-06T14:45:16.280Z,127.00
2023-03-06T14:50:33.499Z,94.30
2023-03-06T14:55:38.582Z,13.50
2023-03-06T15:00:47.343Z,75.60
2023-03-06T15:05:53.697Z,85.10
2023-03-06T15:11:05.404Z,34.20
2023-03-06T15:16:30.161Z,23.70
2023-03-06T15:21:39.397Z,27.60
2023-03-06T15:26:43.074Z,19.70
2023-03-06T15:31:48.363Z,35.30
2023-03-06T15:36:56.419Z,18.00
2023-03-06T15:42:22.297Z,14.60
2023-03-06T15:47:26.541Z,14.70
2023-03-06T15:52:30.366Z,15.50
2023-03-06T15:57:35.651Z,10.60
2023-03-06T16:02:41.522Z,34.70
2023-03-06T16:07:47.140Z,62.50
2023-03-06T16:13:13.268Z,49.50
2023-03-06T16:18:18.692Z,65.00
2023-03-06T16:23:22.815Z,99.50
2023-03-06T16:28:28.307Z,113.90
2023-03-06T16:33:32.215Z,62.10
2023-03-06T16:38:36.322Z,55.50
2023-03-06T16:43:40.540Z,31.30
2023-03-06T16:48:46.668Z,31.50
2023-03-06T16:53:54.055Z,40.60
2023-03-06T16:59:00.313Z,60.00
2023-03-06T17:04:06.698Z,97.80
2023-03-06T17:09:11.691Z,67.10
2023-03-06T17:14:15.825Z,45.20
2023-03-06T17:19:19.949Z,35.20
2023-03-06T17:24:24.086Z,43.30
2023-03-06T17:29:33.606Z,42.40
2023-03-06T17:34:40.942Z,35.10
2023-03-06T17:39:44.786Z,44.30
2023-03-06T17:44:48.859Z,63.60
2023-03-06T17:49:52.626Z,52.40
2023-03-06T17:54:56.343Z,59.10
2023-03-06T18:00:00.387Z,60.30
2023-03-06T18:05:05.107Z,49.20
2023-03-06T18:10:10.178Z,58.90
2023-03-06T18:15:16.311Z,46.60
2023-03-06T18:20:21.601Z,34.00
2023-03-06T18:25:25.340Z,33.30
2023-03-06T18:30:30.201Z,28.50
2023-03-06T18:35:35.869Z,34.00
2023-03-06T18:40:42.339Z,80.70
2023-03-06T18:45:57.496Z,72.00
2023-03-06T18:51:11.204Z,85.30
2023-03-06T18:56:22.185Z,83.50
2023-03-06T19:01:27.293Z,112.70
2023-03-06T19:06:32.509Z,67.60
2023-03-06T19:11:38.872Z,78.20
2023-03-06T19:16:43.945Z,48.30
2023-03-06T19:21:48.783Z,56.10
2023-03-06T19:26:54.552Z,63.80
2023-03-06T19:31:59.755Z,37.30
2023-03-06T19:37:05.393Z,45.00
2023-03-06T19:42:09.956Z,54.60
2023-03-06T19:47:14.705Z,40.50
2023-03-06T19:52:19.080Z,50.00
2023-03-06T19:57:23.088Z,58.40
2023-03-06T20:02:27.918Z,63.80
2023-03-06T20:07:36.764Z,61.60
2023-03-06T20:12:45.005Z,64.10
2023-03-06T20:17:48.828Z,62.10
2023-03-06T20:22:52.943Z,62.60
2023-03-06T20:27:56.827Z,53.50
2023-03-06T20:33:00.997Z,66.20
2023-03-06T20:38:04.932Z,70.50
2023-03-06T20:43:09.262Z,65.30
2023-03-06T20:48:13.292Z,65.60
2023-03-06T20:53:17.258Z,39.00
2023-03-06T20:58:22.485Z,46.00
2023-03-06T21:03:26.301Z,50.90
2023-03-06T21:08:31.820Z,48.50
2023-03-06T21:13:35.720Z,45.50
2023-03-06T21:18:40.868Z,40.10
2023-03-06T21:23:46.239Z,39.40
2023-03-06T21:28:50.802Z,33.50
2023-03-06T21:33:56.072Z,23.90
2023-03-06T21:39:00.188Z,21.50
2023-03-06T21:44:06.685Z,23.10
2023-03-06T21:49:10.621Z,35.80
2023-03-06T21:54:17.497Z,42.80
2023-03-06T21:59:26.305Z,43.20
2023-03-06T22:04:30.473Z,37.00
2023-03-06T22:09:37.294Z,54.00
2023-03-06T22:14:45.100Z,42.50
2023-03-06T22:19:50.230Z,39.10
2023-03-06T22:24:54.634Z,42.00
2023-03-06T22:29:58.694Z,43.30
2023-03-06T22:35:03.139Z,48.20
2023-03-06T22:40:08.753Z,34.40
2023-03-06T22:45:13.081Z,26.10
2023-03-06T22:50:17.489Z,23.30
2023-03-06T22:55:21.193Z,18.90
2023-03-06T23:00:25.856Z,18.10
2023-03-06T23:05:30.288Z,21.40
2023-03-06T23:10:40.561Z,25.30
2023-03-06T23:15:44.433Z,22.20
2023-03-06T23:20:48.940Z,19.40
2023-03-06T23:25:59.287Z,16.90
2023-03-06T23:31:23.288Z,16.40
2023-03-06T23:36:28.495Z,15.60
2023-03-06T23:41:32.105Z,20.20
2023-03-06T23:46:35.899Z,22.20
2023-03-06T23:51:39.842Z,26.00
2023-03-06T23:56:43.572Z,26.90
